createdAt,value
2018-02-19T00:01:33.712Z,30.7
2018-02-19T00:11:33.326Z,23.9
2018-02-19T00:21:32.698Z,18.4
2018-02-19T00:31:27.329Z,18.0
2018-02-19T00:41:32.766Z,19.2
2018-02-19T00:51:32.062Z,17.5
2018-02-19T01:01:32.952Z,13.8
2018-02-19T01:11:32.523Z,19.3
2018-02-19T01:21:42.586Z,15.5
2018-02-19T01:31:30.045Z,16.2
2018-02-19T01:41:27.298Z,18.3
2018-02-19T01:51:32.411Z,17.5
2018-02-19T02:01:35.205Z,16.5
2018-02-19T02:11:27.220Z,16.5
2018-02-19T02:21:29.637Z,14.9
2018-02-19T02:31:28.246Z,14.3
2018-02-19T02:41:32.418Z,17.7
2018-02-19T02:51:29.617Z,10.1
2018-02-19T03:01:27.739Z,13.7
2018-02-19T03:11:28.431Z,12.3
2018-02-19T03:21:31.710Z,13.0
2018-02-19T03:31:32.914Z,13.3
2018-02-19T03:41:28.903Z,17.2
2018-02-19T03:51:29.449Z,18.3
2018-02-19T04:01:33.095Z,18.2
2018-02-19T04:11:32.706Z,36.2
2018-02-19T04:21:33.939Z,33.8
2018-02-19T04:31:32.502Z,33.8
2018-02-19T04:41:28.336Z,29.4
2018-02-19T04:51:33.771Z,28.8
2018-02-19T05:01:35.580Z,37.2
2018-02-19T05:11:26.311Z,36.3
2018-02-19T05:21:29.014Z,27.0
2018-02-19T05:31:42.658Z,31.5
2018-02-19T05:41:33.618Z,28.3
2018-02-19T05:51:33.117Z,28.0
2018-02-19T06:01:32.616Z,35.3
2018-02-19T06:11:32.521Z,36.3
2018-02-19T06:21:34.382Z,40.0
2018-02-19T06:31:40.285Z,50.5
2018-02-19T06:41:32.385Z,55.7
2018-02-19T06:51:33.138Z,61.6
2018-02-19T07:01:32.120Z,60.3
2018-02-19T07:11:32.479Z,59.0
2018-02-19T07:21:32.755Z,34.0
2018-02-19T07:31:33.124Z,33.0
2018-02-19T07:41:27.039Z,33.8
2018-02-19T07:51:35.311Z,42.6
2018-02-19T08:01:32.664Z,29.3
2018-02-19T08:11:32.200Z,26.0
2018-02-19T08:21:32.884Z,31.5
2018-02-19T08:31:31.792Z,29.3
2018-02-19T08:41:32.301Z,23.6
2018-02-19T08:51:32.094Z,24.2
2018-02-19T09:01:33.462Z,27.6
2018-02-19T09:11:32.465Z,22.8
2018-02-19T09:21:32.673Z,17.2
2018-02-19T09:31:34.818Z,16.2
2018-02-19T09:41:26.503Z,16.4
2018-02-19T09:51:33.247Z,17.0
2018-02-19T10:01:31.815Z,13.2
2018-02-19T10:11:33.758Z,9.2
2018-02-19T10:21:26.298Z,17.3
2018-02-19T10:31:33.045Z,11.5
2018-02-19T10:41:34.899Z,8.5
2018-02-19T10:51:32.734Z,12.0
2018-02-19T11:02:28.924Z,8.8
2018-02-19T11:12:36.949Z,10.2
2018-02-19T11:21:33.996Z,12.2
2018-02-19T11:31:34.503Z,11.7
2018-02-19T11:41:32.636Z,9.1
2018-02-19T11:51:32.848Z,13.0
2018-02-19T12:01:32.417Z,9.5
2018-02-19T12:11:33.190Z,8.3
2018-02-19T12:22:30.541Z,10.2
2018-02-19T12:31:34.017Z,11.1
2018-02-19T12:41:32.720Z,13.6
2018-02-19T12:51:32.760Z,16.9
2018-02-19T13:01:32.650Z,13.9
2018-02-19T13:11:36.451Z,9.7
2018-02-19T13:21:32.127Z,11.0
2018-02-19T13:31:32.169Z,10.7
2018-02-19T13:41:32.670Z,10.5
2018-02-19T13:51:35.313Z,11.1
2018-02-19T14:01:32.703Z,9.4
2018-02-19T14:11:28.352Z,10.9
2018-02-19T14:21:33.533Z,12.5
2018-02-19T15:02:23.615Z,15.4
2018-02-19T15:11:34.290Z,19.2
2018-02-19T15:22:02.656Z,20.2
2018-02-19T15:31:32.759Z,22.5
2018-02-19T15:41:32.420Z,27.3
2018-02-19T15:51:27.115Z,27.8
2018-02-19T16:01:32.318Z,22.9
2018-02-19T16:11:32.499Z,26.1
2018-02-19T16:21:33.597Z,24.7
2018-02-19T16:31:28.954Z,25.2
2018-02-19T16:41:32.350Z,26.3
2018-02-19T16:51:32.777Z,26.1
2018-02-19T17:01:33.383Z,21.1
2018-02-19T17:11:38.106Z,25.4
2018-02-19T17:21:33.619Z,27.0
2018-02-19T17:31:34.853Z,24.7
2018-02-19T17:41:28.803Z,29.1
2018-02-19T17:51:27.778Z,50.9
2018-02-19T18:01:33.681Z,40.1
2018-02-19T18:11:33.068Z,37.9
2018-02-19T18:21:31.853Z,59.1
2018-02-19T18:31:31.800Z,57.9
2018-02-19T18:41:32.958Z,60.9
2018-02-19T18:51:33.112Z,62.6
2018-02-19T19:01:32.692Z,50.5
2018-02-19T19:11:33.537Z,56.4
2018-02-19T19:21:45.149Z,64.3
2018-02-19T19:31:42.129Z,58.1
2018-02-19T19:41:27.328Z,45.5
2018-02-19T19:51:40.173Z,55.9
2018-02-19T20:02:33.250Z,64.8
2018-02-19T20:11:32.863Z,55.0
2018-02-19T20:31:39.060Z,72.1
2018-02-19T20:41:33.735Z,71.1
2018-02-19T20:51:41.151Z,83.5
2018-02-19T21:01:32.884Z,86.8
2018-02-19T21:11:27.283Z,87.4
2018-02-19T21:21:41.939Z,78.2
2018-02-19T21:31:32.681Z,87.9
2018-02-19T21:41:33.735Z,86.7
2018-02-19T21:51:32.425Z,84.6
2018-02-19T22:01:26.924Z,89.6
2018-02-19T22:11:32.319Z,90.5
2018-02-19T22:21:32.611Z,92.2
2018-02-19T22:31:31.916Z,98.2
2018-02-19T22:41:28.138Z,106.6
2018-02-19T22:51:33.649Z,112.4
2018-02-19T23:01:32.606Z,109.9
2018-02-19T23:11:30.441Z,109.5
2018-02-19T23:21:32.813Z,118.0
2018-02-19T23:31:34.456Z,120.1
2018-02-19T23:41:32.498Z,113.2
